Main page
METAR-TAF:

METAR-TAF

Airports :

Brighton City Airport (Shoreham Airport)

Brighton, England

latitude: 50-50N, longitude: 000-17W, elevation: 2 m

Current weather observation

The report was made 25 minutes ago, at 13:20 UTC
Wind 7 kt from the West/Southwest
Temperature 9°C
Humidity 71%
Pressure 999 hPa
Visibility 10 km or more
Few clouds at a height of 2000 ft

METAR: EGKA 131320Z 24007KT 9999 FEW020 09/04 Q0999

Time: 13:45 (13:45 UTC)

Forecast

The report was made 2 hours and 47 minutes ago, at 10:58 UTC
Forecast valid from 13 at 12 UTC to 13 at 20 UTC
Wind 2 kt from the West
Visibility 10 km or more
Scattered clouds at a height of 2500 ft
Becoming
from 13 at 12 UTC to 13 at 15 UTC
Wind 12 kt from the South
Temporary
from 13 at 15 UTC to 13 at 20 UTC
Visibility: 6000 m
Broken clouds at a height of 1400 ft
rain showers

TAF: EGKA 131058Z 1312/1320 26002KT 9999 SCT025 BECMG 1312/1315 18012KT TEMPO 1315/1320 6000 SHRA BKN014

Weather observations and forecasts of more than 4000 airports (METAR and TAF reports).

The available stations are represented by yellow and red dots on the map.

Hover mouse over dot to see the name of the station.

Then click to see weather observations and forecasts.

To change the map : click on the green buttons with a black cross to zoom in, on the green button with a dash to zoom out, or on the green arrows for adjacent maps.


METAR-TAF: